Terminal Aerodrome Forecast
Issued by NWS Wilmington, OH

Home | Current Version | Previous Version | Text Only | Print | Product List | Glossary On
Versions: 1 2 3 4 5 6 7 8 9 10 11 12 13 14 15 16 17 18 19 20 21 22 23 24 25
661
FTUS41 KILN 251029 AAA
TAFCMH
TAF AMD
KCMH 251029Z 2510/2606 22015G30KT P6SM SCT015 BKN040
     FM251100 26025G35KT P6SM VCSH BKN025 OVC040
      TEMPO 2511/2512 27030G45KT SCT025 OVC050
     FM251200 25018G30KT P6SM FEW025 BKN050
     FM251400 25015G25KT P6SM SCT025
     FM251900 26014KT P6SM SKC
     FM252200 26007KT P6SM SKC=

USA.gov is the U.S. government's official web portal to all federal, state and local government web resources and services.